KMGM/MGM METAR and TAF weather

Enter ICAO airport designator
Station Type Date Time Source
KMGM METAR 2022/08/16 18:53 UTC NOAA

KMGM 161853Z 33008KT 10SM CLR 34/21 A2992 RMK AO2 SLP127 T03440211 $


Station Type Date Time Source
KMGM Decoded METAR 2022/08/16 18:53 UTC NOAA

MONTGOMERY DANNELLY FIELD, AL, United States (KMGM) 32-18N 86-24W 63M
Aug 16, 2022 - 02:53 PM EDT / 2022.08.16 1853 UTC
Wind: from the NNW (330 degrees) at 9 MPH (8 KT):0
Visibility: 10 mile(s):0
Sky conditions: clear
Temperature: 93.9 F (34.4 C)
Heat index: 99.7 F (37.6 C):1
Dew Point: 70.0 F (21.1 C)
Relative Humidity: 45%
Pressure (altimeter): 29.92 in. Hg (1013 hPa)
ob: KMGM 161853Z 33008KT 10SM CLR 34/21 A2992 RMK AO2 SLP127 T03440211
cycle: 19

Station Type Date Time Source
KMGM TAF 2022/08/16 18:22 UTC NOAA

TAF KMGM 161720Z 1618/1718 33006KT P6SM SCT040
FM162000 33008KT P6SM SCT050 SCT250
FM170100 VRB03KT P6SM FEW250
FM171500 33005KT P6SM FEW090 SCT100

Example: see airport list